Flight Track Log - Related Links

Times and Time Zones

All times are in EDT time to prevent confusion due to time zone crossing. See the DAL3759 flight status page for this flight to view local times or setup timezone preferences in your user account.

Time Position Orientation Groundspeed Altitude Reporting Facility
EDT Latitude Longitude Course Direction KTS MPH feet Rate Location/Type
Sun 12:43:07 PM 42.2250 -83.3394 North 154 177 1,200  Level Cleveland Center
Sun 12:43:49 PM 42.2564 -83.3297 13° North 194 223 2,900 2,474 Climbing Cleveland Center
Sun 12:44:44 PM 42.3131 -83.3181 North 251 289 5,200 3,155 Climbing Cleveland Center
Sun 12:45:45 PM 42.3864 -83.3044 North 259 298 9,000 2,974 Climbing Cleveland Center
Sun 12:46:00 PM 42.5635 -83.3500 North  Level FlightAware Approximate
Sun 12:46:39 PM 42.4425 -83.3069 358° North 269 310 10,900  Level Cleveland Center
Sun 12:47:00 PM 42.6544 -83.3500 North  Level FlightAware Approximate
Sun 12:47:39 PM 42.5278 -83.3161 355° North 288 331 12,900  Level Cleveland Center
Sun 12:48:00 PM 42.7453 -83.3500 North  Level FlightAware Approximate
Sun 12:48:39 PM 42.6192 -83.3314 353° North 310 357 15,300  Level Cleveland Center
Sun 12:49:39 PM 42.7100 -83.3636 345° North 328 377 17,300 1,800 Climbing Cleveland Center
Sun 12:50:39 PM 42.7853 -83.4433 322° Northwest 328 377 18,900 1,350 Climbing Cleveland Center
Sun 12:51:39 PM 42.8625 -83.5233 323° Northwest 341 392 20,000 550 Climbing Cleveland Center
Sun 12:52:39 PM 42.9436 -83.6094 322° Northwest 358 412 20,000  Level Cleveland Center
Sun 12:53:39 PM 43.0247 -83.6958 322° Northwest 363 418 20,000  Level Cleveland Center
Sun 12:54:39 PM 43.1078 -83.7797 324° Northwest 363 418 20,000  Level Cleveland Center
Sun 12:55:39 PM 43.1886 -83.8722 320° Northwest 368 423 20,000  Level Cleveland Center
Sun 12:56:39 PM 43.2736 -83.9594 323° Northwest 368 423 20,000  Level Cleveland Center
Sun 12:57:39 PM 43.3567 -84.0467 323° Northwest 380 437 20,000  Level Cleveland Center
Sun 12:57:58 PM 43.3925 -84.0842 323° Northwest 379 436 20,000  Level Minneapolis Center
Sun 12:59:00 PM 43.4772 -84.1756 322° Northwest 381 438 20,000  Level Minneapolis Center
Sun 01:00:01 PM 43.5594 -84.2656 322° Northwest 380 437 20,000  Level Minneapolis Center
Sun 01:01:03 PM 43.6439 -84.3553 322° Northwest 382 440 20,000  Level Minneapolis Center
Sun 01:02:04 PM 43.7281 -84.4472 322° Northwest 386 444 20,000  Level Minneapolis Center
Sun 01:03:06 PM 43.8114 -84.5389 322° Northwest 386 444 20,000  Level Minneapolis Center
Sun 01:04:07 PM 43.8939 -84.6303 321° Northwest 384 442 20,000 -197 Level Minneapolis Center
Sun 01:05:08 PM 43.9953 -84.7411 322° Northwest 387 445 19,600 -1,122 Descending Minneapolis Center
Sun 01:06:10 PM 44.0775 -84.8319 322° Northwest 375 432 17,700 -1,707 Descending Minneapolis Center
Sun 01:07:11 PM 44.1539 -84.9158 322° Northwest 358 412 16,100 -1,644 Descending Minneapolis Center
Sun 01:08:25 PM 44.2458 -85.0200 321° Northwest 356 410 14,000 -1,588 Descending Minneapolis Center
Sun 01:09:27 PM 44.3219 -85.1042 322° Northwest 354 407 12,500 -1,512 Descending Minneapolis Center
Sun 01:10:28 PM 44.3975 -85.1894 321° Northwest 351 404 10,900 -1,279 Descending Minneapolis Center
Sun 01:11:29 PM 44.4625 -85.2644 321° Northwest 318 366 9,900 -1,317 Descending Minneapolis Center
Sun 01:12:31 PM 44.5200 -85.3292 321° Northwest 274 315 8,200 -1,902 Descending Minneapolis Center
Sun 01:13:32 PM 44.5911 -85.4103 321° Northwest 274 315 6,000 -2,049 Descending Minneapolis Center
Sun 01:14:34 PM 44.6472 -85.4756 320° Northwest 270 311 4,000 -1,561 Descending Minneapolis Center
Sun 01:15:35 PM 44.6558 -85.5639 278° West 249 287 2,800 -1,180 Descending Minneapolis Center

Login

Don't have an account? Register now (free) for customized features, flight alerts, and more!